createdAt,value
2023-04-07T00:00:11.115Z,7.50
2023-04-07T00:02:12.691Z,8.15
2023-04-07T00:04:14.439Z,7.75
2023-04-07T00:06:16.199Z,7.97
2023-04-07T00:08:17.738Z,8.57
2023-04-07T00:10:19.227Z,9.27
2023-04-07T00:12:20.688Z,8.80
2023-04-07T00:14:22.145Z,8.25
2023-04-07T00:16:24.322Z,8.10
2023-04-07T00:18:26.140Z,8.38
2023-04-07T00:20:27.640Z,8.07
2023-04-07T00:22:29.446Z,8.43
2023-04-07T00:24:34.437Z,7.50
2023-04-07T00:26:36.341Z,7.90
2023-04-07T00:28:37.943Z,8.10
2023-04-07T00:30:39.396Z,8.07
2023-04-07T00:32:40.978Z,8.00
2023-04-07T00:34:42.594Z,8.27
2023-04-07T00:36:44.050Z,8.48
2023-04-07T00:38:45.502Z,8.05
2023-04-07T00:40:47.023Z,8.32
2023-04-07T00:42:48.491Z,7.93
2023-04-07T00:44:49.934Z,8.57
2023-04-07T00:46:51.518Z,8.73
2023-04-07T00:48:53.128Z,7.72
2023-04-07T00:50:54.660Z,8.45
2023-04-07T00:52:57.128Z,8.52
2023-04-07T00:55:00.280Z,8.98
2023-04-07T00:57:01.782Z,8.10
2023-04-07T00:59:06.409Z,9.02
2023-04-07T01:01:13.656Z,8.60
2023-04-07T01:03:26.157Z,9.20
2023-04-07T01:05:54.664Z,8.70
2023-04-07T01:08:08.677Z,8.98
2023-04-07T01:10:17.369Z,8.45
2023-04-07T01:12:29.834Z,8.70
2023-04-07T01:14:37.053Z,8.60
2023-04-07T01:16:45.803Z,8.85
2023-04-07T01:18:51.053Z,9.63
2023-04-07T01:20:56.381Z,9.38
2023-04-07T01:23:04.073Z,9.80
2023-04-07T01:25:30.537Z,10.00
2023-04-07T01:27:57.617Z,11.63
2023-04-07T01:30:03.417Z,9.40
2023-04-07T01:32:08.224Z,12.20
2023-04-07T01:34:11.861Z,12.43
2023-04-07T01:36:15.893Z,10.48
2023-04-07T01:38:17.933Z,9.93
2023-04-07T01:40:21.371Z,9.13
2023-04-07T01:42:23.442Z,9.73
2023-04-07T01:44:26.158Z,10.60
2023-04-07T01:46:27.739Z,10.00
2023-04-07T01:48:29.214Z,9.65
2023-04-07T01:50:30.852Z,9.80
2023-04-07T01:52:36.417Z,9.05
2023-04-07T01:54:38.204Z,9.50
2023-04-07T01:56:39.660Z,9.82
2023-04-07T01:58:41.273Z,9.95
2023-04-07T02:00:43.478Z,9.50
2023-04-07T02:02:49.051Z,9.75
2023-04-07T02:05:00.200Z,9.55
2023-04-07T02:07:09.647Z,8.77
2023-04-07T02:09:15.432Z,9.77
2023-04-07T02:11:20.526Z,8.70
2023-04-07T02:13:23.320Z,10.23
2023-04-07T02:15:25.533Z,9.73
2023-04-07T02:17:29.312Z,9.65
2023-04-07T02:19:30.927Z,9.90
2023-04-07T02:21:34.393Z,9.65
2023-04-07T02:23:36.077Z,10.07
2023-04-07T02:25:40.564Z,10.20
2023-04-07T02:27:42.086Z,10.02
2023-04-07T02:29:43.550Z,9.30
2023-04-07T02:31:45.113Z,9.05
2023-04-07T02:33:46.600Z,10.10
2023-04-07T02:35:48.092Z,9.85
2023-04-07T02:37:50.609Z,10.27
2023-04-07T02:39:52.135Z,9.75
2023-04-07T02:41:53.637Z,9.90
2023-04-07T02:43:55.415Z,9.77
2023-04-07T02:45:57.141Z,9.35
2023-04-07T02:47:58.764Z,9.77
2023-04-07T02:50:00.342Z,9.88
2023-04-07T02:52:01.847Z,9.48
2023-04-07T02:54:03.322Z,9.43
2023-04-07T02:56:04.886Z,9.32
2023-04-07T02:58:06.392Z,10.13
2023-04-07T03:00:08.491Z,10.00
2023-04-07T03:02:10.248Z,9.57
2023-04-07T03:04:12.282Z,9.77
2023-04-07T03:06:14.472Z,9.10
2023-04-07T03:08:16.144Z,9.65
2023-04-07T03:10:17.639Z,10.00
2023-04-07T03:12:19.161Z,9.20
2023-04-07T03:14:20.634Z,9.35
2023-04-07T03:16:22.219Z,9.70
2023-04-07T03:18:23.830Z,10.18
2023-04-07T03:20:25.294Z,9.80
2023-04-07T03:22:26.807Z,9.57
2023-04-07T03:24:28.262Z,9.82
2023-04-07T03:26:29.759Z,9.25
2023-04-07T03:28:31.287Z,9.63
2023-04-07T03:30:32.805Z,9.75
2023-04-07T03:32:34.321Z,9.73
2023-04-07T03:34:35.971Z,9.75
2023-04-07T03:36:37.505Z,10.52
2023-04-07T03:38:38.988Z,10.00
2023-04-07T03:40:40.762Z,9.88
2023-04-07T03:42:42.985Z,9.88
2023-04-07T03:44:44.517Z,10.52
2023-04-07T03:46:47.120Z,10.20
2023-04-07T03:48:48.644Z,11.10
2023-04-07T03:50:50.134Z,10.50
2023-04-07T03:52:51.691Z,10.07
2023-04-07T03:54:53.148Z,10.90
2023-04-07T03:56:54.654Z,10.32
2023-04-07T03:58:56.227Z,10.27
2023-04-07T04:00:57.969Z,10.55
2023-04-07T04:03:00.702Z,10.95
2023-04-07T04:05:02.331Z,10.20
2023-04-07T04:07:03.804Z,10.63
2023-04-07T04:09:05.545Z,10.48
2023-04-07T04:11:07.007Z,11.05
2023-04-07T04:13:08.496Z,11.15
2023-04-07T04:15:10.797Z,10.88
2023-04-07T04:17:12.270Z,10.85
2023-04-07T04:19:13.745Z,10.48
2023-04-07T04:21:15.273Z,11.43
2023-04-07T04:23:16.727Z,10.13
2023-04-07T04:25:18.860Z,9.93
2023-04-07T04:27:20.468Z,11.00
2023-04-07T04:29:21.985Z,10.48
2023-04-07T04:31:23.475Z,10.23
2023-04-07T04:33:25.030Z,11.23
2023-04-07T04:35:27.220Z,10.75
2023-04-07T04:37:28.679Z,11.45
2023-04-07T04:39:30.137Z,10.70
2023-04-07T04:41:31.683Z,10.43
2023-04-07T04:43:33.200Z,10.57
2023-04-07T04:45:34.840Z,10.43
2023-04-07T04:47:38.978Z,9.68
2023-04-07T04:49:41.249Z,10.32
2023-04-07T04:51:42.731Z,10.68
2023-04-07T04:53:44.210Z,10.88
2023-04-07T04:55:48.171Z,10.25
2023-04-07T04:57:49.672Z,10.40
2023-04-07T04:59:51.528Z,10.70
2023-04-07T05:01:53.080Z,10.88
2023-04-07T05:03:55.114Z,10.70
2023-04-07T05:05:57.054Z,10.98
2023-04-07T05:07:58.548Z,11.02
2023-04-07T05:10:00.069Z,10.15
2023-04-07T05:12:02.563Z,11.40
2023-04-07T05:14:04.049Z,10.60
2023-04-07T05:16:06.615Z,10.50
2023-04-07T05:18:08.172Z,10.60
2023-04-07T05:20:10.925Z,10.55
2023-04-07T05:22:12.496Z,11.10
2023-04-07T05:24:14.007Z,11.65
2023-04-07T05:26:15.791Z,10.80
2023-04-07T05:28:17.372Z,10.93
2023-04-07T05:30:18.901Z,10.98
2023-04-07T05:32:20.357Z,11.27
2023-04-07T05:34:22.172Z,11.25
2023-04-07T05:36:23.852Z,10.73
2023-04-07T05:38:25.865Z,10.65
2023-04-07T05:40:27.354Z,10.85
2023-04-07T05:42:28.853Z,11.45
2023-04-07T05:44:30.340Z,10.13
2023-04-07T05:46:31.827Z,10.73
2023-04-07T05:48:33.372Z,11.05
2023-04-07T05:50:34.893Z,10.40
2023-04-07T05:52:36.354Z,11.02
2023-04-07T05:54:39.394Z,10.60
2023-04-07T05:56:40.916Z,10.82
2023-04-07T05:58:42.426Z,10.05
2023-04-07T06:00:43.965Z,9.95
2023-04-07T06:02:46.182Z,10.60
2023-04-07T06:04:47.728Z,10.10
2023-04-07T06:06:49.250Z,10.15
2023-04-07T06:08:50.855Z,10.68
2023-04-07T06:10:52.415Z,10.00
2023-04-07T06:12:53.887Z,9.68
2023-04-07T06:14:56.504Z,10.27
2023-04-07T06:16:58.132Z,9.90
2023-04-07T06:18:59.666Z,9.95
2023-04-07T06:21:01.337Z,10.30
2023-04-07T06:23:02.832Z,9.25
2023-04-07T06:25:04.687Z,10.07
2023-04-07T06:27:06.715Z,10.35
2023-04-07T06:29:08.267Z,10.10
2023-04-07T06:31:09.928Z,9.95
2023-04-07T06:33:11.424Z,10.15
2023-04-07T06:35:12.912Z,9.73
2023-04-07T06:37:16.897Z,9.50
2023-04-07T06:39:18.556Z,10.27
2023-04-07T06:41:20.232Z,10.45
2023-04-07T06:43:21.751Z,10.05
2023-04-07T06:45:23.498Z,9.57
2023-04-07T06:47:25.041Z,9.60
2023-04-07T06:49:26.553Z,9.65
2023-04-07T06:51:28.043Z,9.27
2023-04-07T06:53:29.519Z,10.07
2023-04-07T06:55:31.353Z,9.60
2023-04-07T06:57:32.992Z,9.98
2023-04-07T06:59:34.453Z,10.20
2023-04-07T07:01:37.682Z,9.10
2023-04-07T07:03:39.519Z,9.43
2023-04-07T07:05:41.067Z,9.45
2023-04-07T07:07:42.537Z,9.48
2023-04-07T07:09:43.995Z,8.75
2023-04-07T07:11:46.056Z,8.93
2023-04-07T07:13:48.090Z,9.77
2023-04-07T07:15:50.440Z,10.27
2023-04-07T07:17:51.977Z,9.43
2023-04-07T07:19:53.551Z,9.48
2023-04-07T07:21:55.763Z,9.32
2023-04-07T07:23:57.364Z,9.25
2023-04-07T07:25:58.870Z,9.20
2023-04-07T07:28:00.432Z,8.80
2023-04-07T07:30:01.980Z,9.57
2023-04-07T07:32:03.558Z,8.98
2023-04-07T07:34:05.063Z,8.70
2023-04-07T07:36:07.517Z,9.52
2023-04-07T07:38:09.041Z,8.85
2023-04-07T07:40:11.155Z,8.85
2023-04-07T07:42:12.823Z,8.40
2023-04-07T07:44:14.316Z,8.63
2023-04-07T07:46:15.911Z,8.50
2023-04-07T07:48:17.499Z,7.63
2023-04-07T07:50:18.976Z,7.88
2023-04-07T07:52:23.505Z,7.72
2023-04-07T07:54:25.380Z,7.95
2023-04-07T07:56:27.629Z,7.63
2023-04-07T07:58:29.090Z,8.32
2023-04-07T08:00:30.766Z,8.15
2023-04-07T08:02:33.979Z,8.20
2023-04-07T08:04:36.407Z,7.85
2023-04-07T08:06:38.128Z,7.50
2023-04-07T08:08:39.842Z,7.65
2023-04-07T08:10:41.427Z,8.00
2023-04-07T08:12:42.914Z,7.15
2023-04-07T08:14:44.717Z,7.90
2023-04-07T08:16:46.564Z,8.00
2023-04-07T08:18:48.459Z,7.38
2023-04-07T08:20:50.150Z,6.95
2023-04-07T08:22:51.625Z,7.15
2023-04-07T08:24:53.120Z,7.13
2023-04-07T08:26:54.649Z,7.65
2023-04-07T08:28:56.523Z,7.40
2023-04-07T08:30:57.968Z,7.60
2023-04-07T08:32:59.733Z,7.05
2023-04-07T08:35:01.391Z,6.65
2023-04-07T08:37:03.006Z,6.53
2023-04-07T08:39:05.685Z,7.20
2023-04-07T08:41:17.513Z,7.63
2023-04-07T08:43:20.234Z,7.30
2023-04-07T08:45:22.378Z,6.88
2023-04-07T08:47:26.508Z,6.97
2023-04-07T08:49:30.779Z,6.63
2023-04-07T08:51:33.210Z,6.07
2023-04-07T08:53:50.492Z,7.10
2023-04-07T08:55:52.819Z,6.35
2023-04-07T08:57:54.743Z,6.50
2023-04-07T08:59:57.795Z,6.38
2023-04-07T09:01:59.672Z,6.20
2023-04-07T09:04:03.663Z,6.75
2023-04-07T09:06:05.411Z,6.82
2023-04-07T09:08:06.911Z,6.18
2023-04-07T09:10:08.867Z,6.80
2023-04-07T09:12:11.353Z,6.35
2023-04-07T09:14:13.107Z,5.88
2023-04-07T09:16:14.695Z,6.00
2023-04-07T09:18:17.001Z,7.20
2023-04-07T09:20:18.504Z,6.35
2023-04-07T09:22:38.114Z,6.20
2023-04-07T09:24:40.520Z,6.30
2023-04-07T09:26:41.968Z,5.80
2023-04-07T09:28:48.325Z,6.45
2023-04-07T09:30:54.610Z,6.07
2023-04-07T09:32:56.782Z,6.28
2023-04-07T09:34:59.401Z,6.40
2023-04-07T09:37:02.090Z,6.25
2023-04-07T09:39:08.627Z,6.25
2023-04-07T09:41:15.296Z,5.88
2023-04-07T09:43:18.791Z,6.32
2023-04-07T09:45:34.751Z,5.90
2023-04-07T09:47:38.197Z,5.65
2023-04-07T09:49:53.970Z,6.43
2023-04-07T09:51:58.220Z,5.55
2023-04-07T09:53:59.792Z,6.00
2023-04-07T09:56:01.772Z,6.32
2023-04-07T09:58:04.675Z,6.25
2023-04-07T10:00:06.923Z,6.10
2023-04-07T10:02:09.303Z,6.20
2023-04-07T10:04:11.488Z,6.07
2023-04-07T10:06:13.712Z,6.18
2023-04-07T10:08:15.752Z,6.10
2023-04-07T10:10:17.610Z,5.82
2023-04-07T10:12:19.499Z,6.00
2023-04-07T10:14:23.356Z,6.20
2023-04-07T10:16:25.767Z,6.03
2023-04-07T10:18:31.774Z,6.45
2023-04-07T10:20:33.348Z,6.50
2023-04-07T10:22:37.029Z,5.82
2023-04-07T10:25:06.342Z,5.25
2023-04-07T10:27:12.670Z,5.93
2023-04-07T10:29:15.388Z,6.20
2023-04-07T10:31:21.348Z,6.38
2023-04-07T10:33:47.871Z,6.10
2023-04-07T10:36:07.046Z,6.05
2023-04-07T10:38:08.653Z,5.63
2023-04-07T10:40:19.611Z,5.97
2023-04-07T10:42:39.277Z,5.75
2023-04-07T10:44:40.738Z,6.05
2023-04-07T10:46:45.054Z,6.28
2023-04-07T10:49:10.158Z,6.10
2023-04-07T10:51:18.134Z,5.72
2023-04-07T10:53:22.590Z,6.25
2023-04-07T10:55:32.507Z,5.75
2023-04-07T10:57:34.276Z,5.43
2023-04-07T10:59:36.782Z,5.68
2023-04-07T11:01:38.344Z,5.90
2023-04-07T11:03:42.491Z,5.93
2023-04-07T11:05:44.092Z,6.38
2023-04-07T11:07:55.334Z,5.78
2023-04-07T11:10:10.983Z,6.60
2023-04-07T11:12:25.026Z,6.80
2023-04-07T11:14:31.716Z,6.20
2023-04-07T11:16:38.679Z,6.30
2023-04-07T11:18:41.881Z,5.55
2023-04-07T11:20:46.790Z,5.20
2023-04-07T11:23:00.666Z,5.70
2023-04-07T11:25:02.119Z,5.97
2023-04-07T11:27:04.066Z,6.20
2023-04-07T11:29:06.046Z,5.60
2023-04-07T11:31:08.531Z,6.32
2023-04-07T11:33:14.397Z,6.18
2023-04-07T11:35:16.699Z,6.63
2023-04-07T11:37:28.873Z,5.80
2023-04-07T11:39:31.291Z,5.30
2023-04-07T11:41:33.881Z,5.75
2023-04-07T11:43:36.591Z,5.25
2023-04-07T11:45:38.057Z,5.60
2023-04-07T11:47:40.747Z,5.50
2023-04-07T11:49:47.042Z,5.80
2023-04-07T11:51:48.574Z,5.15
2023-04-07T11:53:56.811Z,5.47
2023-04-07T11:56:09.830Z,5.82
2023-04-07T11:58:12.265Z,5.57
2023-04-07T12:00:15.846Z,5.63
2023-04-07T12:02:36.138Z,5.93
2023-04-07T12:04:40.263Z,5.60
2023-04-07T12:06:42.722Z,5.53
2023-04-07T12:08:44.715Z,5.68
2023-04-07T12:10:46.636Z,5.55
2023-04-07T12:12:49.197Z,5.65
2023-04-07T12:14:51.376Z,5.13
2023-04-07T12:16:56.241Z,5.32
2023-04-07T12:18:57.896Z,5.25
2023-04-07T12:20:59.510Z,5.20
2023-04-07T12:23:01.382Z,5.50
2023-04-07T12:25:02.891Z,5.20
2023-04-07T12:27:04.450Z,5.15
2023-04-07T12:29:06.929Z,5.85
2023-04-07T12:31:08.429Z,5.38
2023-04-07T12:33:09.892Z,5.53
2023-04-07T12:35:11.751Z,5.20
2023-04-07T12:37:13.373Z,5.50
2023-04-07T12:39:16.047Z,6.32
2023-04-07T12:41:17.509Z,6.00
2023-04-07T12:43:19.173Z,5.13
2023-04-07T12:45:21.202Z,5.65
2023-04-07T12:47:22.808Z,5.00
2023-04-07T12:49:24.297Z,6.05
2023-04-07T12:51:26.360Z,5.43
2023-04-07T12:53:27.899Z,5.72
2023-04-07T12:55:30.760Z,6.15
2023-04-07T12:57:32.822Z,5.50
2023-04-07T12:59:34.652Z,5.82
2023-04-07T13:01:37.265Z,5.50
2023-04-07T13:03:39.040Z,5.72
2023-04-07T13:05:40.649Z,5.32
2023-04-07T13:07:42.127Z,5.30
2023-04-07T13:09:43.659Z,5.82
2023-04-07T13:11:46.000Z,5.43
2023-04-07T13:13:47.743Z,5.40
2023-04-07T13:15:49.469Z,5.95
2023-04-07T13:17:51.341Z,5.70
2023-04-07T13:19:52.927Z,5.32
2023-04-07T13:21:54.900Z,5.68
2023-04-07T13:23:56.629Z,5.70
2023-04-07T13:25:58.311Z,5.20
2023-04-07T13:27:59.829Z,5.30
2023-04-07T13:30:01.673Z,5.20
2023-04-07T13:32:07.094Z,5.30
2023-04-07T13:34:08.624Z,4.85
2023-04-07T13:36:10.349Z,5.55
2023-04-07T13:38:11.961Z,4.55
2023-04-07T13:40:13.472Z,4.70
2023-04-07T13:42:18.050Z,4.78
2023-04-07T13:44:19.541Z,4.97
2023-04-07T13:46:28.465Z,4.40
2023-04-07T13:48:30.546Z,5.00
2023-04-07T13:50:31.990Z,4.97
2023-04-07T13:52:35.321Z,4.97
2023-04-07T13:54:38.142Z,4.85
2023-04-07T13:56:40.376Z,4.50
2023-04-07T13:58:41.935Z,4.35
2023-04-07T14:00:43.452Z,5.25
2023-04-07T14:02:45.969Z,4.45
2023-04-07T14:04:47.589Z,4.55
2023-04-07T14:06:49.040Z,4.90
2023-04-07T14:08:51.393Z,4.57
2023-04-07T14:10:53.050Z,4.22
2023-04-07T14:12:54.500Z,4.75
2023-04-07T14:14:56.577Z,4.05
2023-04-07T14:16:58.194Z,4.53
2023-04-07T14:18:59.678Z,4.15
2023-04-07T14:21:03.217Z,4.05
2023-04-07T14:23:04.697Z,4.13
2023-04-07T14:25:06.720Z,3.72
2023-04-07T14:27:08.191Z,3.75
2023-04-07T14:29:09.714Z,4.07
2023-04-07T14:31:15.828Z,4.13
2023-04-07T14:33:17.450Z,3.92
2023-04-07T14:35:19.017Z,3.90
2023-04-07T14:37:24.593Z,4.18
2023-04-07T14:39:26.177Z,4.63
2023-04-07T14:41:28.213Z,3.63
2023-04-07T14:43:30.483Z,3.55
2023-04-07T14:45:32.757Z,3.25
2023-04-07T14:47:34.341Z,3.58
2023-04-07T14:49:35.871Z,3.33
2023-04-07T14:51:37.373Z,3.60
2023-04-07T14:53:40.290Z,3.00
2023-04-07T14:55:42.309Z,3.20
2023-04-07T14:57:43.835Z,3.58
2023-04-07T14:59:45.526Z,3.42
2023-04-07T15:01:47.092Z,3.30
2023-04-07T15:03:49.036Z,3.30
2023-04-07T15:05:51.010Z,3.30
2023-04-07T15:07:52.562Z,2.90
2023-04-07T15:09:54.084Z,3.08
2023-04-07T15:11:56.323Z,2.95
2023-04-07T15:13:58.028Z,3.08
2023-04-07T15:16:13.234Z,2.67
2023-04-07T15:18:14.797Z,2.75
2023-04-07T15:20:16.328Z,3.10
2023-04-07T15:22:17.783Z,2.83
2023-04-07T15:24:21.305Z,3.22
2023-04-07T15:26:22.964Z,2.63
2023-04-07T15:28:24.975Z,2.70
2023-04-07T15:30:26.422Z,2.83
2023-04-07T15:32:31.050Z,3.15
2023-04-07T15:34:32.604Z,2.58
2023-04-07T15:36:34.055Z,3.03
2023-04-07T15:38:36.286Z,2.50
2023-04-07T15:40:38.552Z,3.15
2023-04-07T15:42:41.808Z,2.88
2023-04-07T15:44:43.589Z,2.75
2023-04-07T15:46:45.481Z,2.47
2023-04-07T15:48:47.970Z,3.00
2023-04-07T15:50:49.517Z,2.90
2023-04-07T15:52:51.173Z,2.65
2023-04-07T15:54:52.749Z,2.95
2023-04-07T15:56:54.245Z,2.60
2023-04-07T15:58:55.930Z,2.65
2023-04-07T16:00:57.628Z,2.67
2023-04-07T16:02:59.414Z,2.95
2023-04-07T16:05:01.147Z,2.78
2023-04-07T16:07:02.611Z,2.97
2023-04-07T16:09:04.168Z,2.65
2023-04-07T16:11:05.755Z,3.33
2023-04-07T16:13:07.218Z,2.55
2023-04-07T16:15:11.135Z,2.95
2023-04-07T16:17:12.727Z,2.40
2023-04-07T16:19:14.417Z,3.00
2023-04-07T16:21:16.491Z,3.10
2023-04-07T16:23:18.092Z,3.03
2023-04-07T16:25:19.629Z,3.00
2023-04-07T16:27:21.143Z,2.95
2023-04-07T16:29:22.630Z,3.05
2023-04-07T16:31:24.140Z,2.70
2023-04-07T16:33:26.146Z,2.85
2023-04-07T16:35:27.852Z,3.08
2023-04-07T16:37:30.328Z,3.00
2023-04-07T16:39:31.875Z,4.05
2023-04-07T16:45:01.274Z,3.88
2023-04-07T16:47:03.490Z,3.30
2023-04-07T16:49:05.029Z,3.63
2023-04-07T16:51:06.574Z,3.05
2023-04-07T16:53:07.988Z,3.42
2023-04-07T16:55:09.728Z,3.08
2023-04-07T16:57:12.100Z,2.92
2023-04-07T16:59:14.078Z,5.18
2023-04-07T17:01:15.791Z,7.55
2023-04-07T17:03:17.499Z,3.35
2023-04-07T17:05:19.213Z,3.28
2023-04-07T17:07:20.732Z,3.28
2023-04-07T17:09:22.180Z,3.20
2023-04-07T17:11:23.580Z,2.90
2023-04-07T17:13:24.970Z,2.97
2023-04-07T17:15:26.503Z,9.20
2023-04-07T17:17:28.062Z,15.50
2023-04-07T17:19:29.582Z,4.40
2023-04-07T17:21:31.925Z,3.10
2023-04-07T17:23:33.398Z,2.88
2023-04-07T17:25:34.811Z,5.28
2023-04-07T17:27:36.342Z,2.90
2023-04-07T17:29:37.848Z,2.75
2023-04-07T17:31:39.372Z,2.20
2023-04-07T17:33:41.170Z,2.67
2023-04-07T17:35:43.853Z,3.20
2023-04-07T17:37:46.035Z,2.85
2023-04-07T17:39:47.532Z,2.88
2023-04-07T17:41:48.987Z,2.70
2023-04-07T17:43:50.518Z,3.55
2023-04-07T17:45:52.570Z,2.67
2023-04-07T17:47:54.847Z,2.50
2023-04-07T17:49:56.297Z,2.92
2023-04-07T17:51:57.719Z,4.45
2023-04-07T17:53:59.147Z,3.00
2023-04-07T17:56:00.881Z,3.28
2023-04-07T17:58:02.314Z,2.33
2023-04-07T18:00:05.774Z,2.47
2023-04-07T18:02:10.553Z,2.60
2023-04-07T18:04:13.053Z,2.38
2023-04-07T18:06:18.007Z,2.40
2023-04-07T18:08:19.627Z,2.80
2023-04-07T18:10:21.039Z,2.30
2023-04-07T18:12:22.895Z,2.50
2023-04-07T18:14:24.751Z,2.72
2023-04-07T18:16:26.265Z,2.47
2023-04-07T18:18:27.925Z,2.40
2023-04-07T18:20:29.527Z,2.25
2023-04-07T18:22:31.592Z,2.55
2023-04-07T18:24:33.863Z,3.00
2023-04-07T18:26:36.673Z,2.90
2023-04-07T18:28:38.173Z,4.60
2023-04-07T18:30:39.647Z,2.60
2023-04-07T18:32:41.428Z,2.55
2023-04-07T18:34:42.961Z,2.90
2023-04-07T18:36:44.438Z,2.80
2023-04-07T18:38:45.944Z,5.50
2023-04-07T18:40:47.365Z,1.98
2023-04-07T18:42:48.819Z,2.45
2023-04-07T18:44:50.283Z,2.20
2023-04-07T18:46:51.954Z,2.00
2023-04-07T18:48:53.767Z,1.95
2023-04-07T18:50:56.467Z,2.00
2023-04-07T18:52:58.722Z,2.60
2023-04-07T18:55:00.308Z,2.63
2023-04-07T18:57:02.549Z,2.72
2023-04-07T18:59:04.246Z,2.80
2023-04-07T19:01:06.102Z,2.65
2023-04-07T19:03:08.110Z,2.78
2023-04-07T19:05:11.663Z,2.90
2023-04-07T19:07:13.084Z,3.40
2023-04-07T19:09:14.509Z,3.40
2023-04-07T19:11:16.268Z,3.53
2023-04-07T19:13:18.354Z,2.78
2023-04-07T19:15:19.943Z,2.78
2023-04-07T19:17:21.723Z,2.83
2023-04-07T19:19:23.214Z,3.70
2023-04-07T19:21:24.663Z,2.75
2023-04-07T19:23:26.181Z,3.38
2023-04-07T19:25:27.678Z,3.55
2023-04-07T19:27:29.677Z,2.88
2023-04-07T19:29:31.307Z,2.90
2023-04-07T19:31:32.809Z,3.00
2023-04-07T19:33:35.169Z,2.60
2023-04-07T19:35:39.005Z,3.13
2023-04-07T19:37:40.962Z,2.78
2023-04-07T19:39:46.955Z,3.53
2023-04-07T19:41:53.770Z,3.50
2023-04-07T19:43:55.306Z,2.90
2023-04-07T19:45:57.550Z,3.38
2023-04-07T19:48:00.135Z,3.13
2023-04-07T19:50:01.650Z,3.28
2023-04-07T19:52:03.354Z,3.22
2023-04-07T19:54:04.791Z,3.42
2023-04-07T19:56:06.254Z,3.50
2023-04-07T19:58:07.738Z,3.35
2023-04-07T20:00:10.316Z,3.38
2023-04-07T20:02:11.900Z,3.22
2023-04-07T20:04:13.431Z,3.05
2023-04-07T20:06:15.304Z,3.35
2023-04-07T20:08:16.839Z,2.97
2023-04-07T20:10:18.340Z,3.28
2023-04-07T20:12:19.777Z,3.40
2023-04-07T20:14:21.183Z,3.50
2023-04-07T20:16:22.818Z,3.40
2023-04-07T20:18:24.275Z,3.38
2023-04-07T20:20:26.033Z,4.07
2023-04-07T20:22:27.456Z,3.28
2023-04-07T20:24:28.893Z,3.90
2023-04-07T20:26:30.841Z,3.90
2023-04-07T20:28:32.296Z,3.50
2023-04-07T20:30:33.792Z,3.60
2023-04-07T20:32:35.337Z,3.72
2023-04-07T20:34:36.878Z,3.30
2023-04-07T20:36:38.279Z,3.17
2023-04-07T20:38:43.634Z,3.85
2023-04-07T20:40:45.100Z,3.75
2023-04-07T20:42:46.699Z,3.67
2023-04-07T20:44:49.074Z,3.97
2023-04-07T20:46:51.377Z,4.00
2023-04-07T20:48:53.270Z,4.30
2023-04-07T20:50:54.974Z,3.45
2023-04-07T20:52:56.414Z,3.60
2023-04-07T20:54:58.322Z,3.70
2023-04-07T20:57:00.658Z,3.90
2023-04-07T20:59:02.074Z,4.20
2023-04-07T21:01:03.584Z,3.65
2023-04-07T21:03:05.223Z,4.45
2023-04-07T21:05:07.067Z,4.70
2023-04-07T21:07:08.479Z,3.80
2023-04-07T21:09:09.981Z,4.63
2023-04-07T21:11:11.402Z,4.65
2023-04-07T21:13:12.815Z,4.28
2023-04-07T21:15:14.789Z,4.70
2023-04-07T21:17:16.359Z,4.15
2023-04-07T21:19:17.776Z,4.70
2023-04-07T21:21:19.331Z,4.80
2023-04-07T21:23:20.802Z,4.30
2023-04-07T21:25:22.260Z,4.32
2023-04-07T21:27:23.752Z,5.15
2023-04-07T21:29:29.919Z,5.13
2023-04-07T21:31:32.370Z,5.22
2023-04-07T21:33:34.079Z,5.28
2023-04-07T21:35:35.556Z,5.03
2023-04-07T21:37:36.997Z,5.00
2023-04-07T21:39:38.429Z,5.15
2023-04-07T21:41:39.880Z,4.38
2023-04-07T21:43:41.636Z,3.97
2023-04-07T21:45:43.458Z,4.60
2023-04-07T21:47:45.002Z,4.65
2023-04-07T21:49:46.519Z,4.90
2023-04-07T21:51:49.146Z,4.78
2023-04-07T21:53:50.566Z,4.68
2023-04-07T21:55:52.493Z,4.60
2023-04-07T21:57:54.347Z,4.85
2023-04-07T21:59:55.922Z,4.55
2023-04-07T22:01:57.900Z,4.60
2023-04-07T22:04:00.128Z,4.30
2023-04-07T22:06:01.812Z,5.10
2023-04-07T22:08:03.311Z,4.68
2023-04-07T22:10:05.171Z,4.70
2023-04-07T22:12:06.730Z,4.70
2023-04-07T22:14:08.134Z,4.65
2023-04-07T22:16:11.795Z,4.75
2023-04-07T22:18:13.684Z,4.85
2023-04-07T22:20:15.919Z,4.78
2023-04-07T22:22:17.450Z,4.88
2023-04-07T22:24:18.951Z,5.05
2023-04-07T22:26:20.706Z,5.05
2023-04-07T22:28:22.178Z,4.70
2023-04-07T22:30:24.567Z,4.78
2023-04-07T22:32:26.238Z,5.45
2023-04-07T22:34:27.698Z,4.80
2023-04-07T22:36:29.180Z,5.10
2023-04-07T22:38:30.889Z,4.85
2023-04-07T22:40:32.379Z,5.15
2023-04-07T22:42:33.855Z,4.88
2023-04-07T22:44:35.488Z,5.07
2023-04-07T22:46:36.986Z,5.05
2023-04-07T22:48:38.405Z,5.15
2023-04-07T22:50:39.918Z,5.38
2023-04-07T22:52:42.109Z,4.70
2023-04-07T22:54:43.547Z,5.30
2023-04-07T22:56:45.272Z,5.10
2023-04-07T22:58:46.751Z,5.07
2023-04-07T23:00:48.228Z,4.78
2023-04-07T23:02:49.842Z,5.63
2023-04-07T23:04:51.508Z,5.13
2023-04-07T23:06:53.127Z,5.22
2023-04-07T23:08:55.725Z,5.18
2023-04-07T23:10:57.182Z,4.90
2023-04-07T23:12:58.721Z,5.18
2023-04-07T23:15:00.335Z,5.10
2023-04-07T23:17:01.775Z,6.03
2023-04-07T23:19:03.255Z,5.57
2023-04-07T23:21:04.891Z,5.40
2023-04-07T23:23:06.541Z,5.80
2023-04-07T23:25:08.467Z,5.20
2023-04-07T23:27:10.159Z,5.43
2023-04-07T23:29:11.941Z,5.38
2023-04-07T23:31:13.511Z,6.07
2023-04-07T23:33:15.123Z,5.63
2023-04-07T23:35:16.580Z,5.30
2023-04-07T23:37:18.086Z,6.03
2023-04-07T23:39:19.620Z,5.40
2023-04-07T23:41:21.138Z,5.45
2023-04-07T23:43:22.586Z,5.95
2023-04-07T23:45:24.150Z,5.82
2023-04-07T23:47:25.830Z,5.72
2023-04-07T23:49:29.148Z,6.07
2023-04-07T23:51:30.660Z,6.20
2023-04-07T23:53:32.086Z,6.85
2023-04-07T23:55:33.549Z,6.50
2023-04-07T23:57:34.987Z,6.47
2023-04-07T23:59:36.461Z,5.90
